Hillsboro, Mississippi
Current Conditions -  °F | °C
As of 12:54 AM on Monday 24 Nov 2014 (Local Time) from KJAN Reporting Station
Clear Clear  
Wind Chill: 63°   Ceiling: Unl
Heat Index: 63°   Visibility: 10mi
Dew Point: 60°   Wind: 12mph
Humidity: 90%   Direction: 190°S
Pressure: 29.65"   Gusts: NA
Location:  32.46°N, 89.51°W
Report Text: KJAN 240654Z AUTO 19010KT 10SM CLR 17/16 A2965 RMK AO2 SLP037 T01720156
Loading
Personal Weather Stations






























Interactive Weather Map New forecast layout! Learn more

10-Day Weather Forecast

Advertisements
Track Severe Weather on mobile